createdAt,value
2018-06-14T04:36:47.079Z,11.47
2018-06-14T04:39:17.272Z,10.87
2018-06-14T04:41:47.444Z,10.67
2018-06-14T04:44:17.636Z,11.70
2018-06-14T04:46:47.891Z,11.17
2018-06-14T04:49:18.204Z,12.00
2018-06-14T04:51:48.455Z,10.23
2018-06-14T04:54:18.537Z,10.60
2018-06-14T04:56:55.500Z,9.37
2018-06-14T04:59:26.456Z,10.47
2018-06-14T05:01:56.707Z,10.23
2018-06-14T05:04:26.936Z,9.23
2018-06-14T05:06:57.237Z,8.87
2018-06-14T05:09:27.506Z,9.60
2018-06-14T05:11:57.783Z,9.00
2018-06-14T05:14:28.138Z,9.43
2018-06-14T05:16:58.820Z,10.40
2018-06-14T05:19:29.095Z,10.17
2018-06-14T05:21:59.405Z,10.47
2018-06-14T05:24:29.647Z,10.83
2018-06-14T05:27:00.056Z,10.20
2018-06-14T05:29:30.477Z,9.37
2018-06-14T05:32:00.884Z,10.20
2018-06-14T05:34:31.184Z,11.17
2018-06-14T05:37:01.434Z,10.33
2018-06-14T05:39:31.750Z,11.33
2018-06-14T05:42:02.014Z,11.30
2018-06-14T05:44:32.446Z,10.70
2018-06-14T05:47:02.984Z,9.70
2018-06-14T05:49:33.284Z,10.70
2018-06-14T05:52:03.726Z,11.30
2018-06-14T05:54:40.101Z,11.00
2018-06-14T05:57:10.465Z,10.53
2018-06-14T05:59:40.648Z,12.07
2018-06-14T06:02:10.871Z,10.90
2018-06-14T06:04:41.236Z,10.90
2018-06-14T06:07:11.491Z,9.97
2018-06-14T06:09:41.765Z,10.27
2018-06-14T06:12:12.104Z,11.20
2018-06-14T06:14:42.389Z,10.53
2018-06-14T06:17:12.825Z,10.93
2018-06-14T06:19:43.123Z,9.70
2018-06-14T06:22:12.999Z,10.47
2018-06-14T06:24:43.295Z,11.87
2018-06-14T06:27:13.541Z,12.07
2018-06-14T06:29:43.886Z,10.87
2018-06-14T06:32:14.351Z,10.07
2018-06-14T06:34:44.641Z,10.27
2018-06-14T06:37:14.944Z,8.70
2018-06-14T06:39:45.329Z,9.07
2018-06-14T06:42:15.731Z,7.97
2018-06-14T06:44:46.155Z,9.20
2018-06-14T06:47:16.284Z,9.10
2018-06-14T06:49:46.621Z,8.90
2018-06-14T06:52:16.836Z,8.97
2018-06-14T06:54:47.291Z,8.40
2018-06-14T06:57:17.644Z,8.20
2018-06-14T06:59:48.062Z,7.23
2018-06-14T07:02:18.312Z,6.03
2018-06-14T07:04:48.650Z,5.47
2018-06-14T07:07:25.453Z,6.63
2018-06-14T07:09:55.779Z,6.60
2018-06-14T07:12:26.285Z,6.53
2018-06-14T07:14:57.045Z,7.57
2018-06-14T07:17:27.303Z,6.83
2018-06-14T07:19:57.893Z,6.73
2018-06-14T07:22:28.168Z,6.57
2018-06-14T07:24:58.335Z,6.53
2018-06-14T07:27:28.614Z,7.00
2018-06-14T07:29:58.910Z,8.60
2018-06-14T07:32:29.123Z,6.63
2018-06-14T07:34:59.336Z,6.60
2018-06-14T07:37:29.631Z,6.80
2018-06-14T07:39:59.836Z,7.30
2018-06-14T07:42:30.144Z,6.80
2018-06-14T07:45:00.371Z,7.03
2018-06-14T07:47:30.684Z,7.70
2018-06-14T07:50:01.081Z,10.97
2018-06-14T07:52:31.384Z,7.50
2018-06-14T07:55:01.871Z,7.57
2018-06-14T07:57:32.158Z,8.77
2018-06-14T08:00:02.436Z,7.43
2018-06-14T08:02:32.885Z,9.80
2018-06-14T08:05:03.065Z,8.07
2018-06-14T08:07:33.322Z,7.00
2018-06-14T08:10:03.592Z,5.90
2018-06-14T08:12:33.971Z,6.60
2018-06-14T08:15:04.686Z,6.80
2018-06-14T08:17:35.102Z,8.00
2018-06-14T08:20:05.480Z,8.33
2018-06-14T08:22:35.864Z,8.83
2018-06-14T08:25:06.125Z,8.53
2018-06-14T08:27:36.286Z,8.73
2018-06-14T08:30:06.658Z,9.77
2018-06-14T08:32:37.025Z,10.23
2018-06-14T08:35:07.419Z,10.53
2018-06-14T08:37:37.812Z,10.27
2018-06-14T08:40:08.299Z,8.73
2018-06-14T08:42:38.566Z,10.47
2018-06-14T08:45:08.937Z,10.13
2018-06-14T08:47:39.315Z,9.10
2018-06-14T08:50:09.788Z,9.60
2018-06-14T08:52:40.115Z,10.07
2018-06-14T08:55:10.186Z,10.97
2018-06-14T08:57:40.590Z,10.67
2018-06-14T09:00:10.898Z,13.27
2018-06-14T09:02:41.575Z,12.17
2018-06-14T09:05:11.793Z,8.70
2018-06-14T09:07:48.542Z,9.20
2018-06-14T09:10:18.877Z,8.27
2018-06-14T09:12:49.196Z,8.17
2018-06-14T09:15:19.556Z,8.03
2018-06-14T09:17:49.966Z,8.03
2018-06-14T09:20:20.337Z,7.07
2018-06-14T09:22:50.798Z,8.43
2018-06-14T09:25:21.125Z,7.40
2018-06-14T09:27:51.470Z,8.10
2018-06-14T09:30:21.792Z,7.80
2018-06-14T09:32:52.110Z,8.77
2018-06-14T09:35:22.317Z,7.60
2018-06-14T09:37:52.679Z,7.97
2018-06-14T09:40:23.062Z,7.30
2018-06-14T09:42:53.432Z,6.93
2018-06-14T09:45:24.413Z,11.70
2018-06-14T09:47:54.838Z,9.27
2018-06-14T09:50:25.162Z,7.57
2018-06-14T09:52:55.679Z,7.30
2018-06-14T09:55:26.153Z,8.70
2018-06-14T09:57:56.451Z,8.50
2018-06-14T10:00:26.843Z,8.30
2018-06-14T10:02:57.360Z,7.90
2018-06-14T10:05:27.565Z,7.33
2018-06-14T10:07:57.892Z,7.50
2018-06-14T10:10:28.235Z,7.77
2018-06-14T10:12:58.572Z,7.90
2018-06-14T10:15:28.770Z,7.67
2018-06-14T10:17:59.281Z,7.53
2018-06-14T10:20:29.738Z,8.57
2018-06-14T10:23:00.047Z,7.07
2018-06-14T10:25:30.816Z,7.67
2018-06-14T10:28:01.200Z,7.80
2018-06-14T10:30:31.488Z,7.23
2018-06-14T10:33:01.692Z,8.00
2018-06-14T10:35:32.066Z,8.33
2018-06-14T10:38:02.469Z,8.57
2018-06-14T10:40:32.667Z,7.87
2018-06-14T10:43:05.600Z,8.30
2018-06-14T10:45:35.990Z,8.73
2018-06-14T10:48:06.385Z,7.53
2018-06-14T10:50:36.500Z,8.00
2018-06-14T10:53:06.852Z,10.27
2018-06-14T10:55:36.939Z,9.00
2018-06-14T10:58:07.708Z,8.80
2018-06-14T11:00:38.736Z,8.20
2018-06-14T11:03:09.133Z,7.70
2018-06-14T11:05:39.330Z,8.33
2018-06-14T11:08:09.629Z,8.50
2018-06-14T11:10:40.292Z,7.50
2018-06-14T11:13:10.656Z,8.23
2018-06-14T11:15:41.108Z,7.93
2018-06-14T11:18:11.325Z,8.67
2018-06-14T11:20:41.721Z,7.53
2018-06-14T11:23:12.076Z,9.43
2018-06-14T11:25:42.481Z,9.30
2018-06-14T11:28:12.977Z,37.97
2018-06-14T11:30:44.189Z,12.23
2018-06-14T11:33:14.558Z,7.90
2018-06-14T11:35:45.382Z,7.23
2018-06-14T11:38:15.694Z,7.00
2018-06-14T11:40:46.317Z,6.80
2018-06-14T11:43:16.640Z,7.17
2018-06-14T11:45:46.900Z,7.07
2018-06-14T11:48:17.295Z,6.30
2018-06-14T11:50:47.699Z,6.67
2018-06-14T11:53:17.909Z,6.40
2018-06-14T11:55:48.377Z,4.90
2018-06-14T11:58:18.868Z,5.13
2018-06-14T12:00:49.306Z,5.23
2018-06-14T12:03:19.965Z,9.50
2018-06-14T12:05:50.759Z,6.13
2018-06-14T12:08:21.142Z,5.47
2018-06-14T12:10:51.604Z,6.20
2018-06-14T12:13:22.026Z,5.40
2018-06-14T12:15:52.458Z,4.53
2018-06-14T12:18:29.105Z,4.50
2018-06-14T12:20:59.343Z,4.73
2018-06-14T12:23:29.843Z,4.53
2018-06-14T12:26:00.056Z,4.33
2018-06-14T12:28:30.335Z,4.53
2018-06-14T12:31:00.584Z,4.63
2018-06-14T12:33:31.020Z,5.03
2018-06-14T12:36:01.504Z,5.43
2018-06-14T12:38:31.696Z,4.77
2018-06-14T12:41:02.117Z,3.93
2018-06-14T12:43:32.421Z,3.60
2018-06-14T12:46:02.748Z,4.30
2018-06-14T12:48:33.217Z,3.77
2018-06-14T12:51:03.716Z,3.83
2018-06-14T12:53:34.057Z,3.37
2018-06-14T12:56:04.297Z,4.43
2018-06-14T12:58:34.737Z,4.43
2018-06-14T13:01:05.380Z,5.47
2018-06-14T13:03:35.647Z,4.27
2018-06-14T13:06:06.112Z,4.33
2018-06-14T13:08:36.627Z,5.60
2018-06-14T13:11:07.015Z,4.50
2018-06-14T13:13:37.615Z,4.50
2018-06-14T13:16:08.102Z,4.80
2018-06-14T13:18:38.540Z,4.67
2018-06-14T13:21:08.916Z,4.30
2018-06-14T13:23:39.436Z,5.17
2018-06-14T13:26:09.383Z,5.87
2018-06-14T13:28:39.595Z,5.30
2018-06-14T13:31:10.232Z,5.80
2018-06-14T13:33:40.751Z,6.70
2018-06-14T13:36:11.045Z,6.30
2018-06-14T13:38:41.413Z,5.40
2018-06-14T13:41:11.758Z,6.20
2018-06-14T13:43:42.009Z,6.60
2018-06-14T13:46:12.355Z,7.60
2018-06-14T13:48:42.701Z,7.87
2018-06-14T13:51:13.336Z,7.10
2018-06-14T13:53:43.729Z,6.83
2018-06-14T13:56:14.032Z,7.47
2018-06-14T13:58:44.684Z,8.60
2018-06-14T14:01:15.187Z,7.57
2018-06-14T14:03:45.864Z,7.33
2018-06-14T14:06:16.226Z,8.57
2018-06-14T14:08:46.762Z,8.13
2018-06-14T14:11:17.343Z,7.13
2018-06-14T14:13:47.699Z,8.33
2018-06-14T14:16:18.129Z,7.87
2018-06-14T14:18:48.784Z,8.03
2018-06-14T14:21:19.196Z,7.80
2018-06-14T14:23:49.511Z,8.53
2018-06-14T14:26:19.973Z,7.73
2018-06-14T14:28:50.418Z,7.57
2018-06-14T14:31:20.668Z,7.37
2018-06-14T14:33:51.193Z,8.40
2018-06-14T14:36:21.492Z,6.80
2018-06-14T14:38:51.760Z,7.67
2018-06-14T14:41:22.318Z,6.90
2018-06-14T14:43:52.576Z,7.63
2018-06-14T14:46:22.865Z,7.53
2018-06-14T14:48:53.125Z,7.90
2018-06-14T14:51:23.662Z,7.13
2018-06-14T14:54:00.372Z,8.60
2018-06-14T14:56:31.053Z,8.13
2018-06-14T14:59:01.201Z,8.10
2018-06-14T15:01:31.621Z,9.67
2018-06-14T15:04:01.954Z,9.27
2018-06-14T15:06:32.463Z,11.20
2018-06-14T15:09:02.995Z,10.83
2018-06-14T15:11:33.482Z,9.93
2018-06-14T15:14:03.808Z,9.83
2018-06-14T15:16:34.125Z,8.80
2018-06-14T15:19:04.575Z,8.50
2018-06-14T15:21:34.963Z,7.60
2018-06-14T15:24:05.373Z,8.47
2018-06-14T15:26:36.146Z,7.67
2018-06-14T15:29:06.544Z,6.13
2018-06-14T15:31:36.730Z,5.67
2018-06-14T15:34:07.257Z,5.77
2018-06-14T15:36:37.601Z,6.20
2018-06-14T15:39:09.161Z,5.57
2018-06-14T15:41:39.470Z,5.80
2018-06-14T15:44:09.942Z,5.77
2018-06-14T15:46:40.156Z,6.17
2018-06-14T15:49:10.561Z,5.47
2018-06-14T15:51:40.848Z,5.17
2018-06-14T15:54:14.200Z,6.07
2018-06-14T15:56:44.450Z,6.33
2018-06-14T15:59:16.395Z,5.97
2018-06-14T16:01:46.734Z,5.50
2018-06-14T16:04:17.035Z,6.03
2018-06-14T16:06:47.368Z,6.67
2018-06-14T16:09:17.632Z,6.17
2018-06-14T16:11:48.017Z,6.03
2018-06-14T16:14:18.425Z,6.20
2018-06-14T16:16:48.809Z,6.47
2018-06-14T16:19:19.037Z,6.77
2018-06-14T16:21:49.409Z,6.93
2018-06-14T16:24:19.721Z,6.90
2018-06-14T16:26:49.966Z,6.60
2018-06-14T16:29:20.638Z,7.07
2018-06-14T16:31:51.000Z,6.50
2018-06-14T16:34:21.397Z,6.93
2018-06-14T16:36:51.619Z,6.80
2018-06-14T16:39:22.649Z,7.03
2018-06-14T16:41:53.250Z,7.70
2018-06-14T16:44:23.556Z,7.20
2018-06-14T16:46:53.850Z,16.40
2018-06-14T16:49:24.153Z,12.10
2018-06-14T16:51:54.559Z,10.00
2018-06-14T16:54:25.022Z,10.43
2018-06-14T16:56:55.273Z,11.37
2018-06-14T16:59:25.611Z,10.03
2018-06-14T17:01:55.862Z,7.50
2018-06-14T17:04:26.408Z,10.97
2018-06-14T17:06:56.595Z,10.73
2018-06-14T17:09:27.045Z,11.13
2018-06-14T17:11:57.557Z,15.03
2018-06-14T17:14:27.798Z,12.77
2018-06-14T17:16:58.460Z,11.83
2018-06-14T17:19:28.929Z,9.50
2018-06-14T17:21:59.476Z,9.93
2018-06-14T17:24:29.819Z,10.07
2018-06-14T17:27:00.111Z,9.53
2018-06-14T17:29:30.375Z,9.27
2018-06-14T17:32:00.608Z,9.70
2018-06-14T17:34:30.852Z,8.30
2018-06-14T17:37:01.059Z,8.10
2018-06-14T17:39:31.601Z,8.00
2018-06-14T17:42:01.951Z,8.00
2018-06-14T17:44:32.260Z,7.93
2018-06-14T17:47:03.378Z,7.87
2018-06-14T17:49:33.764Z,8.60
2018-06-14T17:52:04.209Z,7.80
2018-06-14T17:54:34.600Z,7.33
2018-06-14T17:57:04.954Z,7.30
2018-06-14T17:59:35.251Z,6.90
2018-06-14T18:02:05.609Z,7.33
2018-06-14T18:04:35.821Z,7.47
2018-06-14T18:07:06.076Z,6.93
2018-06-14T18:09:36.276Z,7.07
2018-06-14T18:12:06.537Z,7.73
2018-06-14T18:14:36.916Z,7.87
2018-06-14T18:17:07.276Z,8.80
2018-06-14T18:19:37.629Z,9.10
2018-06-14T18:22:07.899Z,8.70
2018-06-14T18:24:38.470Z,7.87
2018-06-14T18:27:08.850Z,8.70
2018-06-14T18:29:39.334Z,8.70
2018-06-14T18:32:09.722Z,8.47
2018-06-14T18:34:39.951Z,8.20
2018-06-14T18:37:10.393Z,8.20
2018-06-14T18:39:40.608Z,8.13
2018-06-14T18:42:10.771Z,8.83
2018-06-14T18:44:41.000Z,8.97
2018-06-14T18:47:11.298Z,9.57
2018-06-14T18:49:41.537Z,9.93
2018-06-14T18:52:12.056Z,9.50
2018-06-14T18:54:42.329Z,9.77
2018-06-14T18:57:12.548Z,8.83
2018-06-14T18:59:42.954Z,8.80
2018-06-14T19:02:13.168Z,9.87
2018-06-14T19:04:43.334Z,9.30
2018-06-14T19:07:13.633Z,8.57
2018-06-14T19:09:44.293Z,9.73
2018-06-14T19:12:14.348Z,8.10
2018-06-14T19:14:44.572Z,8.80
2018-06-14T19:17:14.944Z,8.27
2018-06-14T19:19:45.484Z,8.77
2018-06-14T19:22:15.670Z,8.03
2018-06-14T19:24:45.991Z,7.93
2018-06-14T19:27:16.327Z,8.03
2018-06-14T19:29:46.508Z,7.77
2018-06-14T19:32:16.707Z,7.93
2018-06-14T19:34:46.984Z,7.70
2018-06-14T19:37:17.220Z,10.40
2018-06-14T19:39:47.388Z,10.17
2018-06-14T19:42:17.688Z,12.13
2018-06-14T19:44:47.935Z,12.97
2018-06-14T19:47:18.201Z,12.67
2018-06-14T19:49:48.618Z,12.17
2018-06-14T19:52:18.911Z,11.17
2018-06-14T19:54:49.114Z,11.57
2018-06-14T19:57:19.788Z,11.03
2018-06-14T19:59:50.008Z,10.67
2018-06-14T20:02:20.210Z,10.83
2018-06-14T20:04:50.534Z,10.77
2018-06-14T20:07:20.799Z,10.23
2018-06-14T20:09:51.012Z,9.53
2018-06-14T20:12:21.162Z,9.87
2018-06-14T20:14:51.449Z,9.80
2018-06-14T20:17:21.775Z,10.07
2018-06-14T20:19:52.048Z,9.13
2018-06-14T20:22:22.457Z,9.10
2018-06-14T20:24:52.731Z,9.10
2018-06-14T20:27:23.108Z,8.83
2018-06-14T20:29:56.228Z,8.10
2018-06-14T20:32:26.497Z,7.97
2018-06-14T20:34:56.740Z,9.33
2018-06-14T20:37:27.299Z,7.83
2018-06-14T20:39:57.615Z,8.03
2018-06-14T20:42:27.807Z,7.70
2018-06-14T20:44:58.119Z,7.97
2018-06-14T20:47:28.527Z,9.07
2018-06-14T20:49:58.760Z,8.87
2018-06-14T20:52:28.742Z,8.00
2018-06-14T20:54:58.928Z,8.33
2018-06-14T20:57:29.018Z,8.53
2018-06-14T20:59:59.439Z,8.57
2018-06-14T21:02:29.651Z,8.60
2018-06-14T21:05:00.033Z,7.80
2018-06-14T21:07:30.527Z,8.23
2018-06-14T21:10:00.844Z,7.50
2018-06-14T21:12:31.156Z,8.00
2018-06-14T21:15:01.409Z,7.70
2018-06-14T21:17:31.679Z,7.93
2018-06-14T21:20:01.888Z,7.43
2018-06-14T21:22:32.088Z,7.97
2018-06-14T21:25:02.405Z,9.30
2018-06-14T21:27:32.713Z,8.97
2018-06-14T21:30:02.938Z,9.17
2018-06-14T21:32:33.168Z,8.47
2018-06-14T21:35:03.378Z,7.97
2018-06-14T21:37:33.686Z,8.10
2018-06-14T21:40:03.977Z,7.47
2018-06-14T21:42:34.455Z,8.00
2018-06-14T21:45:04.713Z,8.27
2018-06-14T21:47:34.987Z,8.17
2018-06-14T21:50:05.730Z,8.17
2018-06-14T21:52:36.004Z,7.57
2018-06-14T21:55:06.344Z,8.00
2018-06-14T21:57:36.766Z,7.40
2018-06-14T22:00:07.615Z,7.80
2018-06-14T22:02:43.124Z,7.47
2018-06-14T22:05:13.214Z,6.83
2018-06-14T22:07:43.497Z,7.97
2018-06-14T22:10:13.688Z,7.97
2018-06-14T22:12:43.976Z,7.37
2018-06-14T22:15:14.210Z,7.50
2018-06-14T22:17:44.508Z,7.53
2018-06-14T22:20:14.823Z,7.23
2018-06-14T22:22:44.967Z,7.47
2018-06-14T22:25:15.308Z,6.40
2018-06-14T22:27:45.541Z,6.90
2018-06-14T22:30:15.941Z,6.97
2018-06-14T22:32:46.644Z,6.70
2018-06-14T22:35:27.973Z,6.80
2018-06-14T22:37:58.348Z,6.30
2018-06-14T22:40:28.652Z,6.03
2018-06-14T22:42:58.820Z,6.67
2018-06-14T22:45:29.126Z,6.30
2018-06-14T22:47:59.425Z,5.70
2018-06-14T22:50:41.072Z,5.90
2018-06-14T22:53:11.715Z,6.00
2018-06-14T22:55:42.514Z,6.10
2018-06-14T22:58:12.772Z,6.20
2018-06-14T23:00:48.531Z,6.17
2018-06-14T23:03:18.174Z,5.50
2018-06-14T23:05:48.449Z,5.27
2018-06-14T23:08:18.701Z,6.03
2018-06-14T23:10:59.424Z,5.67
2018-06-14T23:13:29.399Z,6.17
2018-06-14T23:15:59.653Z,5.90
2018-06-14T23:18:29.904Z,5.80
2018-06-14T23:21:00.159Z,6.00
2018-06-14T23:23:30.328Z,6.30
2018-06-14T23:26:00.548Z,5.27
2018-06-14T23:28:30.794Z,5.47
2018-06-14T23:31:01.044Z,5.63
2018-06-14T23:33:31.240Z,6.00
2018-06-14T23:36:01.511Z,5.80
2018-06-14T23:38:31.750Z,6.00
2018-06-14T23:41:01.956Z,5.53
2018-06-14T23:43:32.107Z,5.50
2018-06-14T23:46:02.296Z,6.30
2018-06-14T23:48:32.595Z,5.70
2018-06-14T23:51:02.824Z,5.63
2018-06-14T23:53:33.116Z,5.73
2018-06-14T23:56:03.429Z,6.03
2018-06-14T23:58:33.672Z,6.23
